Time;durP1;ratioP1;P1;durP2;ratioP2;P2;SDS_P1;SDS_P2;PMS_P1;PMS_P2;Temp;Humidity;BMP_temperature;BMP_pressure;BME280_temperature;BME280_humidity;BME280_pressure;Samples;Min_cycle;Max_cycle;Signal;HPM_P1;HPM_P2
2022/09/05 00:02:27;;;;;;;2.78;2.58;;;;;;;18.49;67.30;97151.09;6275019;22;20008;-79
2022/09/05 00:05:06;;;;;;;3.45;2.45;;;;;;;18.44;68.21;97150.13;6274990;22;20012;-78
2022/09/05 00:07:45;;;;;;;2.65;2.45;;;;;;;18.39;66.71;97140.22;6274988;22;20012;-78
2022/09/05 00:10:36;;;;;;;2.22;2.13;;;;;;;18.35;65.32;97144.31;6274912;22;20064;-78
2022/09/05 00:13:27;;;;;;;3.95;2.30;;;;;;;18.28;65.04;97143.59;6274841;22;20024;-78
2022/09/05 00:16:09;;;;;;;3.37;2.40;;;;;;;18.24;65.21;97148.50;6274872;22;20012;-77
2022/09/05 00:18:48;;;;;;;3.33;2.47;;;;;;;18.30;71.36;97147.63;6274618;22;20024;-78
2022/09/05 00:21:53;;;;;;;4.78;3.22;;;;;;;18.38;73.42;97149.16;6274527;22;20008;-78
2022/09/05 00:24:52;;;;;;;4.63;2.58;;;;;;;18.31;67.66;97154.50;6274658;22;20004;-78
2022/09/05 00:27:49;;;;;;;3.45;2.88;;;;;;;18.25;68.29;97162.50;6274499;22;20035;-78
2022/09/05 00:30:19;;;;;;;4.60;2.70;;;;;;;18.23;69.08;97156.63;6274511;22;20012;-78
2022/09/05 00:33:30;;;;;;;3.65;2.70;;;;;;;18.28;74.15;97159.44;6274693;22;20019;-77
2022/09/05 00:36:19;;;;;;;3.67;2.65;;;;;;;18.19;67.25;97145.69;6274538;22;20008;-78
2022/09/05 00:38:56;;;;;;;2.65;2.33;;;;;;;18.10;66.17;97147.81;6274401;22;20015;-77
2022/09/05 00:41:26;;;;;;;5.47;2.28;;;;;;;18.05;65.90;97150.25;6274581;22;20024;-78
2022/09/05 00:43:57;;;;;;;1.90;1.80;;;;;;;17.99;65.71;97148.47;6274601;22;20042;-78
2022/09/05 00:46:28;;;;;;;3.65;1.90;;;;;;;17.94;65.65;97155.44;6274540;22;20008;-78
2022/09/05 00:49:16;;;;;;;1.95;1.75;;;;;;;17.88;65.34;97160.53;6274499;22;20031;-78
2022/09/05 00:51:53;;;;;;;3.03;1.60;;;;;;;17.83;65.48;97151.66;6274469;22;20054;-78
2022/09/05 00:54:56;;;;;;;1.70;1.60;;;;;;;17.80;65.72;97165.25;6274401;22;20004;-78
2022/09/05 00:57:49;;;;;;;2.15;1.90;;;;;;;17.76;65.67;97167.50;6257077;22;20211;-78
2022/09/05 01:00:21;;;;;;;2.20;2.00;;;;;;;17.70;65.50;97157.81;6274321;22;20008;-77
2022/09/05 01:03:08;;;;;;;2.90;1.90;;;;;;;17.69;65.47;97164.91;6274475;22;20004;-78
2022/09/05 01:05:54;;;;;;;3.28;1.52;;;;;;;17.65;65.48;97162.91;6274389;22;20043;-78
2022/09/05 01:08:36;;;;;;;3.88;1.63;;;;;;;17.61;65.61;97162.53;6274403;22;20042;-78
2022/09/05 01:11:11;;;;;;;1.85;1.75;;;;;;;17.59;65.40;97156.66;6274224;22;20014;-78
2022/09/05 01:13:47;;;;;;;3.63;1.70;;;;;;;17.56;65.41;97161.53;6274325;22;20008;-78
2022/09/05 01:16:23;;;;;;;2.58;1.60;;;;;;;17.50;65.66;97150.81;6274193;22;20027;-77
2022/09/05 01:19:04;;;;;;;1.88;1.35;;;;;;;17.48;65.59;97149.41;6274113;22;20020;-78
2022/09/05 01:22:08;;;;;;;1.92;1.40;;;;;;;17.45;65.65;97153.28;6273806;22;20048;-78
2022/09/05 01:25:01;;;;;;;2.78;1.67;;;;;;;17.42;65.89;97152.91;6274191;22;20009;-78
2022/09/05 01:27:42;;;;;;;2.78;1.83;;;;;;;17.40;66.00;97152.31;6274176;22;20012;-77
2022/09/05 01:30:35;;;;;;;1.80;1.70;;;;;;;17.37;65.95;97150.91;6253531;23;20024;-81
2022/09/05 01:33:15;;;;;;;2.20;1.63;;;;;;;17.31;66.14;97151.75;6253063;23;20325;-81
2022/09/05 01:36:06;;;;;;;2.65;1.70;;;;;;;17.26;66.51;97141.81;6258559;23;20020;-87
2022/09/05 01:38:42;;;;;;;4.25;1.60;;;;;;;17.25;66.17;97142.88;6260934;23;20020;-87
2022/09/05 01:41:38;;;;;;;1.70;1.60;;;;;;;17.24;66.08;97146.50;6260295;23;20031;-88
2022/09/05 01:44:32;;;;;;;2.40;1.77;;;;;;;17.23;66.37;97151.97;6260899;23;20051;-82
2022/09/05 01:47:16;;;;;;;2.70;2.00;;;;;;;17.22;66.50;97145.09;6250465;23;20039;-83
2022/09/05 01:50:05;;;;;;;5.07;2.20;;;;;;;17.21;66.48;97144.28;6258702;23;20139;-86
2022/09/05 01:52:51;;;;;;;3.08;2.10;;;;;;;17.19;66.35;97150.81;6257981;23;20024;-81
2022/09/05 01:55:49;;;;;;;2.00;1.80;;;;;;;17.18;66.37;97155.25;6257496;23;20027;-82
2022/09/05 01:58:48;;;;;;;6.80;2.08;;;;;;;17.16;66.40;97152.00;6257687;23;20024;-82
2022/09/05 02:01:27;;;;;;;1.98;1.80;;;;;;;17.16;66.39;97143.28;6256722;23;20464;-85
2022/09/05 02:04:21;;;;;;;3.17;1.60;;;;;;;17.15;66.22;97145.13;6256658;23;20016;-84
2022/09/05 02:07:00;;;;;;;2.10;1.40;;;;;;;17.12;66.18;97140.28;6254951;23;20035;-80
2022/09/05 02:10:07;;;;;;;2.63;1.88;;;;;;;17.11;66.41;97146.56;6254396;23;20020;-84
2022/09/05 02:12:43;;;;;;;4.72;1.90;;;;;;;17.09;66.31;97144.13;6254484;23;20031;-82
2022/09/05 02:15:39;;;;;;;2.72;1.73;;;;;;;17.12;66.31;97144.72;6253176;23;20022;-84
2022/09/05 02:18:16;;;;;;;2.28;1.83;;;;;;;17.11;66.39;97143.94;6251116;23;20020;-81
2022/09/05 02:20:48;;;;;;;4.40;1.80;;;;;;;17.11;66.15;97146.56;6252267;23;20016;-81
2022/09/05 02:23:29;;;;;;;1.20;1.20;;;;;;;17.12;66.45;97150.84;6253413;23;20090;-80
2022/09/05 02:26:16;;;;;;;1.73;1.63;;;;;;;17.17;67.19;97153.63;6253511;23;20020;-80
2022/09/05 02:28:52;;;;;;;2.53;1.65;;;;;;;17.22;69.05;97145.91;6250870;23;20078;-81
2022/09/05 02:31:28;;;;;;;3.92;1.65;;;;;;;17.19;66.28;97138.41;6251451;23;20016;-82
2022/09/05 02:34:03;;;;;;;2.33;1.58;;;;;;;17.17;66.37;97147.56;6258608;23;20456;-88
2022/09/05 02:36:38;;;;;;;2.30;1.65;;;;;;;17.12;66.22;97140.28;6264219;23;20079;-85
2022/09/05 02:39:17;;;;;;;1.65;1.55;;;;;;;17.11;66.35;97138.66;6263224;23;20403;-88
2022/09/05 02:42:14;;;;;;;1.80;1.48;;;;;;;17.08;66.06;97123.28;6264130;23;20054;-85
2022/09/05 02:45:21;;;;;;;2.75;1.77;;;;;;;17.04;66.19;97124.72;6264879;23;20020;-87
2022/09/05 02:48:03;;;;;;;2.25;1.80;;;;;;;16.98;66.27;97126.34;6265149;23;20020;-86
2022/09/05 02:50:52;;;;;;;3.08;1.60;;;;;;;16.96;66.29;97128.38;6263655;23;20028;-85
2022/09/05 02:53:43;;;;;;;2.17;1.70;;;;;;;16.94;66.30;97126.97;6264471;23;20364;-86
2022/09/05 02:56:45;;;;;;;3.42;2.10;;;;;;;16.92;66.65;97124.53;6264408;23;20052;-86
2022/09/05 02:59:48;;;;;;;3.67;1.88;;;;;;;16.94;66.58;97105.88;6264099;23;20027;-86
2022/09/05 03:02:26;;;;;;;1.65;1.55;;;;;;;16.94;66.54;97100.63;6264168;23;20039;-84
2022/09/05 03:05:05;;;;;;;1.80;1.70;;;;;;;16.92;66.43;97094.75;6264436;23;20020;-88
2022/09/05 03:08:11;;;;;;;2.53;1.55;;;;;;;16.88;66.51;97107.56;6264016;23;20050;-85
2022/09/05 03:11:29;;;;;;;1.80;1.63;;;;;;;16.91;67.14;97116.88;6217244;23;20024;-84
2022/09/05 03:14:34;;;;;;;2.13;1.90;;;;;;;16.93;67.15;97114.81;6238187;23;20020;-84
2022/09/05 03:17:33;;;;;;;2.40;1.50;;;;;;;16.91;66.71;97112.41;6262785;23;20030;-85
2022/09/05 03:20:33;;;;;;;1.55;1.45;;;;;;;16.87;66.69;97117.25;6263118;23;20020;-84
2022/09/05 03:23:27;;;;;;;3.00;2.08;;;;;;;16.83;66.53;97120.53;6263536;23;20456;-87
2022/09/05 03:26:37;;;;;;;3.03;1.95;;;;;;;16.81;66.68;97118.09;6263460;23;20050;-88
2022/09/05 03:29:49;;;;;;;2.00;1.80;;;;;;;16.82;66.57;97114.44;6262186;23;20040;-85
2022/09/05 03:32:57;;;;;;;2.28;2.00;;;;;;;16.81;66.65;97107.56;6197754;23;20035;-87
2022/09/05 03:35:59;;;;;;;1.75;1.63;;;;;;;16.85;67.87;97115.84;6264191;23;20050;-88
2022/09/05 03:39:09;;;;;;;2.65;2.45;;;;;;;16.93;69.08;97113.00;6262853;23;20020;-82
2022/09/05 03:42:16;;;;;;;2.08;1.95;;;;;;;16.97;69.75;97111.56;6261311;23;20020;-84
2022/09/05 03:45:00;;;;;;;6.85;2.60;;;;;;;16.96;67.30;97103.84;6223686;23;20020;-83
2022/09/05 03:47:57;;;;;;;3.50;2.30;;;;;;;16.97;68.92;97106.28;6260665;23;20024;-83
2022/09/05 03:50:57;;;;;;;5.88;2.83;;;;;;;17.03;68.82;97109.91;6260367;23;20043;-85
2022/09/05 03:54:05;;;;;;;5.38;2.55;;;;;;;17.02;67.18;97108.28;6261383;23;20553;-87
2022/09/05 03:57:17;;;;;;;4.25;2.65;;;;;;;17.05;71.71;97118.41;6260045;23;20023;-81
2022/09/05 04:00:08;;;;;;;4.65;2.80;;;;;;;17.12;71.57;97124.47;6228921;23;20024;-83
2022/09/05 04:02:46;;;;;;;3.22;2.40;;;;;;;17.12;70.48;97118.38;6259948;23;20024;-83
2022/09/05 04:05:38;;;;;;;2.67;2.38;;;;;;;17.08;67.82;97129.34;6258864;23;20024;-85
2022/09/05 04:08:36;;;;;;;4.38;2.17;;;;;;;17.01;67.21;97127.75;6259773;23;20102;-83
2022/09/05 04:11:16;;;;;;;3.65;1.92;;;;;;;16.97;67.16;97131.84;6258954;23;20027;-86
2022/09/05 04:13:51;;;;;;;2.63;2.05;;;;;;;16.94;67.04;97129.59;6259367;23;20016;-86
2022/09/05 04:16:24;;;;;;;3.08;1.90;;;;;;;16.91;67.09;97138.75;6260013;23;20518;-82
2022/09/05 04:18:56;;;;;;;2.53;2.20;;;;;;;16.89;66.95;97133.69;6259964;23;20483;-84
2022/09/05 04:21:27;;;;;;;2.10;1.90;;;;;;;16.92;67.71;97134.28;6258202;23;20042;-81
2022/09/05 04:24:08;;;;;;;2.37;1.83;;;;;;;16.97;69.51;97131.84;6258734;23;20020;-81
2022/09/05 04:26:54;;;;;;;4.40;3.20;;;;;;;16.98;68.30;97130.81;6258852;23;20237;-86
2022/09/05 04:29:28;;;;;;;3.58;3.10;;;;;;;17.02;69.24;97130.19;6257186;23;20098;-80
2022/09/05 04:32:06;;;;;;;6.85;3.67;;;;;;;17.09;74.01;97125.69;6259203;23;20046;-83
2022/09/05 04:35:03;;;;;;;4.63;3.50;;;;;;;17.07;68.72;97126.91;6262920;23;20054;-83
2022/09/05 04:37:47;;;;;;;3.55;3.25;;;;;;;17.06;68.72;97130.59;6262197;23;20024;-83
2022/09/05 04:40:37;;;;;;;6.45;3.05;;;;;;;17.06;69.67;97135.84;6261105;23;20444;-82
2022/09/05 04:43:12;;;;;;;5.85;3.00;;;;;;;17.06;68.55;97143.75;6260305;23;20452;-85
2022/09/05 04:45:44;;;;;;;4.20;3.13;;;;;;;17.04;67.98;97135.25;6259914;23;20021;-82
2022/09/05 04:48:16;;;;;;;3.72;2.42;;;;;;;17.02;68.00;97138.09;6259312;23;20020;-84
2022/09/05 04:51:07;;;;;;;3.67;2.13;;;;;;;17.00;67.71;97140.13;6260297;23;20028;-85
2022/09/05 04:53:59;;;;;;;2.20;1.85;;;;;;;16.98;67.92;97141.34;6259013;23;20424;-83
2022/09/05 04:56:32;;;;;;;2.15;1.75;;;;;;;16.98;67.68;97141.34;6257752;23;20456;-84
2022/09/05 04:59:07;;;;;;;2.28;2.08;;;;;;;16.99;68.08;97150.84;6259052;23;20039;-82
2022/09/05 05:02:00;;;;;;;4.88;2.63;;;;;;;16.97;67.58;97153.72;6258190;23;20044;-83
2022/09/05 05:04:49;;;;;;;3.15;2.85;;;;;;;16.95;67.65;97165.50;6257848;23;20535;-82
2022/09/05 05:07:49;;;;;;;2.72;2.53;;;;;;;16.93;67.89;97165.69;6257637;23;20034;-81
2022/09/05 05:10:25;;;;;;;3.35;2.53;;;;;;;16.92;68.23;97163.25;6257568;23;20016;-80
2022/09/05 05:13:22;;;;;;;5.93;2.83;;;;;;;16.92;68.08;97171.16;6257908;23;20054;-81
2022/09/05 05:16:17;;;;;;;13.65;9.30;;;;;;;16.95;68.11;97181.31;6257308;23;20103;-85
2022/09/05 05:19:12;;;;;;;6.78;5.15;;;;;;;16.95;67.95;97181.31;6256224;23;20047;-81
2022/09/05 05:21:50;;;;;;;5.80;5.03;;;;;;;16.95;67.84;97176.03;6256796;23;20027;-80
2022/09/05 05:24:22;;;;;;;6.75;3.90;;;;;;;16.97;68.04;97181.91;6256237;23;20028;-82
2022/09/05 05:26:55;;;;;;;7.10;4.13;;;;;;;16.98;68.02;97172.97;6255618;23;20024;-84
2022/09/05 05:29:28;;;;;;;4.60;3.90;;;;;;;17.01;68.12;97180.44;6258654;23;20356;-82
2022/09/05 05:32:00;;;;;;;5.32;4.63;;;;;;;17.04;67.92;97180.06;6262905;23;20099;-84
2022/09/05 05:34:31;;;;;;;;;;;;;;;17.08;67.98;97179.44;6261918;23;20434;-86
2022/09/05 05:37:08;;;;;;;6.07;3.70;;;;;;;17.14;67.92;97185.69;6261414;23;20240;-83
2022/09/05 05:39:42;;;;;;;3.70;3.40;;;;;;;17.18;67.88;97186.88;6259741;23;20027;-85
2022/09/05 05:42:15;;;;;;;4.35;3.70;;;;;;;17.22;67.84;97188.09;6258437;23;20095;-84
2022/09/05 05:44:49;;;;;;;7.88;4.95;;;;;;;17.25;68.04;97192.97;6258185;23;20020;-86
2022/09/05 05:47:25;;;;;;;6.20;4.30;;;;;;;17.29;67.84;97188.88;6258063;23;20016;-82
2022/09/05 05:50:01;;;;;;;5.43;4.35;;;;;;;17.34;67.53;97190.06;6257372;23;20016;-82
2022/09/05 05:52:45;;;;;;;4.93;4.43;;;;;;;17.38;67.76;97191.25;6259460;23;20367;-85
2022/09/05 05:55:37;;;;;;;5.95;3.92;;;;;;;17.42;67.81;97181.91;6255256;23;20020;-82
2022/09/05 05:58:45;;;;;;;4.28;3.85;;;;;;;17.44;67.81;97180.69;6255415;23;20059;-80
2022/09/05 06:01:46;;;;;;;5.50;4.03;;;;;;;17.50;68.08;97189.59;6255764;23;20464;-82
2022/09/05 06:04:43;;;;;;;5.28;3.90;;;;;;;17.53;68.07;97185.72;6219988;23;20016;-83
2022/09/05 06:07:22;;;;;;;4.90;4.25;;;;;;;17.59;67.96;97185.66;6257374;23;20024;-86
2022/09/05 06:10:06;;;;;;;5.78;3.72;;;;;;;17.65;67.78;97194.59;6257073;23;20020;-83
2022/09/05 06:13:33;;;;;;;5.13;3.78;;;;;;;17.73;68.12;97186.38;6256949;23;20490;-81
2022/09/05 06:16:48;;;;;;;4.18;3.75;;;;;;;17.81;67.60;97195.91;6254088;23;20020;-81
2022/09/05 06:19:55;;;;;;;3.85;3.55;;;;;;;17.89;67.54;97187.75;6255040;23;20055;-81
2022/09/05 06:23:12;;;;;;;6.40;4.50;;;;;;;17.98;67.92;97185.66;6255049;23;20099;-86
2022/09/05 06:26:20;;;;;;;3.92;3.47;;;;;;;18.08;67.48;97185.97;6255825;23;20486;-83
2022/09/05 06:28:59;;;;;;;4.90;3.47;;;;;;;18.15;67.43;97189.41;6261865;23;20042;-82
2022/09/05 06:31:38;;;;;;;3.33;2.90;;;;;;;18.23;66.93;97189.09;6261894;23;20020;-83
2022/09/05 06:34:42;;;;;;;3.15;2.80;;;;;;;18.32;66.88;97192.28;6261774;23;20035;-84
2022/09/05 06:37:23;;;;;;;2.78;2.47;;;;;;;18.41;66.88;97198.94;6257336;23;20020;-83
2022/09/05 06:40:07;;;;;;;2.97;2.50;;;;;;;18.53;66.63;97199.03;6258935;23;20487;-84
2022/09/05 06:42:50;;;;;;;3.58;2.80;;;;;;;18.65;67.15;97193.81;6258757;23;20079;-82
2022/09/05 06:45:30;;;;;;;3.03;2.83;;;;;;;18.80;66.80;97194.28;6258596;23;20020;-83
2022/09/05 06:48:09;;;;;;;5.15;3.08;;;;;;;18.91;66.19;97193.59;6257758;23;20027;-81
2022/09/05 06:51:12;;;;;;;2.92;2.60;;;;;;;19.06;65.93;97193.19;6253076;23;20020;-82
2022/09/05 06:54:08;;;;;;;4.90;3.17;;;;;;;19.16;65.28;97194.53;6252867;23;20074;-83
2022/09/05 06:57:01;;;;;;;4.25;2.45;;;;;;;19.25;64.92;97186.06;6253154;23;20028;-86
2022/09/05 07:00:02;;;;;;;4.03;2.55;;;;;;;19.35;64.74;97189.00;6240841;23;20043;-87
2022/09/05 07:02:34;;;;;;;3.33;2.47;;;;;;;19.48;64.65;97189.84;6255753;23;20058;-82
2022/09/05 07:05:35;;;;;;;2.53;2.33;;;;;;;19.60;64.16;97188.06;6252547;23;20020;-82
2022/09/05 07:08:23;;;;;;;3.80;2.55;;;;;;;19.72;64.08;97188.94;6251156;23;20368;-81
2022/09/05 07:11:06;;;;;;;2.53;2.33;;;;;;;19.88;64.49;97194.63;6250845;23;20510;-82
2022/09/05 07:13:53;;;;;;;3.47;3.10;;;;;;;20.03;63.18;97196.81;6251143;23;20031;-81
2022/09/05 07:16:29;;;;;;;3.00;2.75;;;;;;;20.21;62.45;97201.25;6250630;23;20474;-84
2022/09/05 07:19:23;;;;;;;4.25;3.35;;;;;;;20.35;62.11;97200.78;6249457;23;20103;-83
2022/09/05 07:22:07;;;;;;;3.38;3.08;;;;;;;20.52;61.88;97200.13;6249803;23;20023;-83
2022/09/05 07:24:56;;;;;;;3.97;3.50;;;;;;;20.69;61.08;97203.72;6250444;23;20048;-82
2022/09/05 07:27:34;;;;;;;3.58;3.08;;;;;;;20.85;60.66;97204.06;6258141;23;20016;-84
2022/09/05 07:30:24;;;;;;;3.88;3.10;;;;;;;20.99;60.06;97206.22;6249593;22;20115;-82
2022/09/05 07:32:53;;;;;;;5.82;2.95;;;;;;;21.13;60.56;97205.97;6250436;23;20123;-82
2022/09/05 07:35:26;;;;;;;3.60;2.78;;;;;;;21.30;59.70;97206.84;6250433;23;20020;-82
2022/09/05 07:38:01;;;;;;;3.33;2.75;;;;;;;21.48;58.79;97203.25;6250687;23;20024;-82
2022/09/05 07:40:31;;;;;;;3.22;2.63;;;;;;;21.62;59.06;97209.06;6250937;23;20052;-82
2022/09/05 07:43:06;;;;;;;3.05;2.70;;;;;;;21.80;58.26;97210.75;6251376;23;20074;-81
2022/09/05 07:45:50;;;;;;;2.95;2.65;;;;;;;21.97;58.02;97216.06;6249948;23;20047;-82
2022/09/05 07:48:26;;;;;;;4.93;1.92;;;;;;;22.16;57.03;97209.47;6251752;23;20103;-82
2022/09/05 07:51:04;;;;;;;2.78;2.00;;;;;;;22.36;57.28;97213.53;6251590;23;20017;-82
2022/09/05 07:53:56;;;;;;;2.95;1.92;;;;;;;22.60;56.44;97214.97;6251038;23;20081;-82
2022/09/05 07:56:47;;;;;;;1.75;1.65;;;;;;;22.87;55.16;97214.31;6254449;23;20031;-82
2022/09/05 07:59:39;;;;;;;1.80;1.70;;;;;;;23.14;54.75;97211.75;6252151;23;20020;-82
2022/09/05 08:02:09;;;;;;;3.80;2.17;;;;;;;23.37;53.85;97209.88;6253292;23;20122;-82
2022/09/05 08:04:39;;;;;;;1.40;1.30;;;;;;;23.65;53.78;97209.66;6254548;23;20016;-82
2022/09/05 08:07:12;;;;;;;2.58;1.83;;;;;;;23.99;52.83;97203.34;6253596;23;20095;-82
2022/09/05 08:10:07;;;;;;;3.58;2.10;;;;;;;24.38;51.56;97211.13;6256803;23;20020;-82
2022/09/05 08:12:40;;;;;;;1.33;1.25;;;;;;;24.74;51.06;97214.06;6256953;23;20028;-82
2022/09/05 08:15:29;;;;;;;1.50;1.40;;;;;;;25.23;50.32;97211.13;6258644;23;20024;-82
2022/09/05 08:18:27;;;;;;;1.60;1.50;;;;;;;25.84;47.94;97207.84;6257890;23;20024;-82
2022/09/05 08:21:06;;;;;;;1.98;1.77;;;;;;;26.33;47.08;97211.91;6258190;22;20031;-82
2022/09/05 08:23:48;;;;;;;2.10;1.63;;;;;;;26.81;45.60;97207.88;6259859;22;20023;-82
2022/09/05 08:26:29;;;;;;;1.83;1.63;;;;;;;27.38;44.81;97205.81;6258684;23;20024;-82
2022/09/05 08:29:05;;;;;;;3.03;1.63;;;;;;;27.88;42.17;97212.00;6262081;23;20032;-82
2022/09/05 08:31:39;;;;;;;1.70;1.38;;;;;;;28.35;41.85;97205.19;6263105;23;20027;-83
2022/09/05 08:34:18;;;;;;;2.10;1.40;;;;;;;28.88;43.32;97209.81;6263783;23;20048;-82
2022/09/05 08:37:11;;;;;;;1.38;1.27;;;;;;;29.40;40.25;97210.03;6267305;23;20031;-82
2022/09/05 08:39:50;;;;;;;1.70;1.30;;;;;;;29.77;39.35;97197.75;6267034;23;20039;-82
2022/09/05 08:42:46;;;;;;;2.35;1.10;;;;;;;30.20;37.99;97197.63;6268047;22;20018;-83
2022/09/05 08:45:51;;;;;;;3.13;1.17;;;;;;;30.61;37.99;97199.63;6268019;23;20024;-83
2022/09/05 08:49:14;;;;;;;2.90;1.35;;;;;;;31.13;36.88;97199.47;6269713;23;20047;-83
2022/09/05 08:52:19;;;;;;;1.23;1.13;;;;;;;31.67;35.16;97197.03;6268702;22;20024;-83
2022/09/05 08:55:09;;;;;;;3.00;1.38;;;;;;;31.96;34.74;97200.13;6269372;23;20020;-82
2022/09/05 09:06:32;;;;;;;1.30;1.20;;;;;;;33.83;31.63;97206.53;6247829;22;20049;-83
2022/09/05 10:00:16;;;;;;;0.95;0.80;;;;;;;41.26;19.54;97171.53;6178364;23;20028;-82
2022/09/05 10:03:36;;;;;;;0.55;0.55;;;;;;;41.34;19.03;97173.97;6208322;23;20023;-81
2022/09/05 10:07:22;;;;;;;0.68;0.68;;;;;;;41.53;19.70;97164.06;6176960;23;20026;-82
2022/09/05 10:18:09;;;;;;;1.98;0.82;;;;;;;41.48;20.34;97162.44;6241415;23;20021;-81
2022/09/05 10:24:11;;;;;;;0.98;0.88;;;;;;;41.05;18.71;97155.56;6242184;22;20019;-81
2022/09/05 10:27:13;;;;;;;4.18;0.77;;;;;;;40.31;19.13;97151.25;6240047;23;20004;-81
2022/09/05 10:30:13;;;;;;;1.30;0.60;;;;;;;39.43;20.10;97144.44;6239178;23;20056;-82
2022/09/05 10:33:07;;;;;;;1.10;1.00;;;;;;;38.99;22.04;97139.16;6240509;23;20020;-81
2022/09/05 10:36:01;;;;;;;2.22;1.25;;;;;;;38.58;22.95;97140.50;6240936;23;20065;-81
2022/09/05 10:38:50;;;;;;;1.67;1.05;;;;;;;38.20;20.93;97136.38;6241430;23;20021;-81
2022/09/05 11:02:33;;;;;;;1.45;0.98;;;;;;;35.30;24.04;97119.72;6073741;23;20098;-83
2022/09/05 11:05:19;;;;;;;1.67;0.90;;;;;;;35.07;23.69;97119.97;6188360;23;20388;-83
2022/09/05 11:07:58;;;;;;;1.40;0.70;;;;;;;34.74;25.17;97117.94;6187959;23;20411;-83
2022/09/05 11:10:33;;;;;;;1.95;0.90;;;;;;;34.58;25.27;97114.97;6188500;23;20021;-83
2022/09/05 11:13:13;;;;;;;2.92;0.95;;;;;;;34.47;25.36;97114.53;6189684;23;20083;-83
2022/09/05 11:15:58;;;;;;;1.45;0.85;;;;;;;34.35;26.04;97117.16;6189858;23;20025;-83
2022/09/05 11:18:53;;;;;;;2.50;0.70;;;;;;;34.28;26.61;97111.41;6187993;23;20051;-83
2022/09/05 11:21:36;;;;;;;;;;;;;;;34.23;25.67;97117.00;6187178;23;20021;-84
2022/09/05 11:24:15;;;;;;;5.25;0.80;;;;;;;33.92;26.80;97109.88;6186101;23;19982;-84
2022/09/05 11:26:46;;;;;;;1.98;1.02;;;;;;;33.78;26.69;97103.84;6186268;23;20020;-83
2022/09/05 11:29:40;;;;;;;5.05;0.80;;;;;;;33.76;25.97;97106.91;6186648;23;20100;-82
2022/09/05 11:32:32;;;;;;;1.60;1.20;;;;;;;33.71;25.57;97098.13;6186010;23;20461;-84
2022/09/05 11:35:23;;;;;;;0.98;0.90;;;;;;;33.63;27.18;97102.44;6186770;23;20021;-83
2022/09/05 11:38:46;;;;;;;3.38;1.25;;;;;;;33.53;26.59;97095.41;6186716;23;20021;-83
2022/09/05 11:41:53;;;;;;;2.75;0.60;;;;;;;33.39;25.93;97078.53;6186514;23;20064;-84
2022/09/05 11:44:29;;;;;;;1.63;1.00;;;;;;;33.28;27.32;97075.38;6186691;23;20028;-83
2022/09/05 11:47:33;;;;;;;3.00;0.80;;;;;;;33.18;26.34;97081.88;6186833;23;20052;-83
2022/09/05 11:50:45;;;;;;;1.02;0.70;;;;;;;33.05;27.14;97069.28;6185745;23;20092;-84
2022/09/05 11:53:54;;;;;;;0.80;0.80;;;;;;;32.92;27.40;97078.34;6186376;23;20028;-83
2022/09/05 11:56:42;;;;;;;2.10;1.00;;;;;;;32.80;26.89;97071.66;6095376;23;20407;-84
2022/09/05 11:59:39;;;;;;;2.08;1.10;;;;;;;32.70;26.29;97076.53;6094816;23;20030;-84
2022/09/05 12:02:31;;;;;;;1.33;0.80;;;;;;;32.51;26.42;97080.25;6175198;23;20024;-83
2022/09/05 12:05:31;;;;;;;2.25;0.98;;;;;;;32.44;26.88;97086.09;6190130;23;20072;-83
2022/09/05 12:08:30;;;;;;;2.88;0.88;;;;;;;32.41;26.80;97080.56;6190332;23;20017;-82
2022/09/05 12:11:10;;;;;;;2.78;0.80;;;;;;;32.35;26.64;97079.88;6188925;23;20021;-84
2022/09/05 12:13:46;;;;;;;0.68;0.68;;;;;;;32.30;26.95;97074.63;6190391;23;20028;-83
2022/09/05 12:16:42;;;;;;;1.50;1.00;;;;;;;32.22;26.79;97059.19;6189712;23;20075;-82
2022/09/05 12:19:31;;;;;;;1.27;1.02;;;;;;;32.16;27.18;97060.41;6189819;23;20013;-83
2022/09/05 12:22:33;;;;;;;2.47;0.80;;;;;;;32.12;27.14;97062.16;6189143;23;20019;-83
2022/09/05 12:25:18;;;;;;;0.70;0.70;;;;;;;32.03;27.34;97059.41;6098252;23;20030;-83
2022/09/05 12:28:14;;;;;;;0.68;0.68;;;;;;;31.97;27.42;97052.53;6189673;23;20025;-83
2022/09/05 12:31:19;;;;;;;2.38;0.95;;;;;;;31.89;27.86;97054.06;6187119;23;20516;-83
2022/09/05 12:34:17;;;;;;;1.15;0.77;;;;;;;31.88;28.00;97057.06;6186353;23;20419;-83
2022/09/05 12:37:11;;;;;;;1.15;0.77;;;;;;;31.81;27.43;97054.81;6187558;23;20021;-83
2022/09/05 12:40:08;;;;;;;1.50;0.63;;;;;;;31.71;27.42;97052.38;6187165;23;20360;-86
2022/09/05 12:43:01;;;;;;;0.90;0.90;;;;;;;31.64;27.89;97052.00;6187053;23;20073;-83
2022/09/05 12:45:57;;;;;;;0.63;0.60;;;;;;;31.49;31.47;97050.50;6186670;23;20357;-80
2022/09/05 12:48:30;;;;;;;1.52;1.00;;;;;;;31.36;29.61;97057.50;6188017;23;20468;-83
2022/09/05 12:51:09;;;;;;;0.45;0.45;;;;;;;31.31;30.52;97053.03;6186999;23;20044;-82
2022/09/05 12:53:43;;;;;;;1.55;1.10;;;;;;;31.23;30.00;97044.88;6188532;23;20052;-82
2022/09/05 12:56:20;;;;;;;1.92;0.70;;;;;;;31.11;30.35;97048.09;6188989;23;20524;-81
2022/09/05 12:59:26;;;;;;;0.88;0.80;;;;;;;30.98;29.74;97052.41;6187238;23;20025;-81
2022/09/05 13:02:22;;;;;;;2.05;0.90;;;;;;;30.83;29.50;97039.25;6187773;23;20100;-79
2022/09/05 13:05:13;;;;;;;0.90;0.90;;;;;;;30.73;29.62;97038.38;6159382;23;20049;-80
2022/09/05 13:07:45;;;;;;;1.08;0.80;;;;;;;30.64;29.70;97028.63;6157332;23;20073;-82
2022/09/05 13:10:19;;;;;;;1.58;0.70;;;;;;;30.52;28.95;97029.91;6159224;23;20433;-82
2022/09/05 13:13:10;;;;;;;1.45;1.00;;;;;;;30.41;29.12;97027.72;6159148;23;20021;-82
2022/09/05 13:16:02;;;;;;;1.13;1.02;;;;;;;30.29;28.66;97026.34;6158807;23;20021;-82
2022/09/05 13:18:38;;;;;;;1.95;0.70;;;;;;;30.13;28.86;97014.22;6160700;23;20026;-82
2022/09/05 13:21:10;;;;;;;3.05;1.20;;;;;;;29.99;28.88;97009.63;6155664;23;20021;-82
2022/09/05 13:23:43;;;;;;;1.08;1.08;;;;;;;29.92;29.26;97011.94;6156063;23;20033;-82
2022/09/05 13:26:22;;;;;;;0.70;0.70;;;;;;;29.86;29.87;97002.34;6156249;23;20028;-82
2022/09/05 13:29:01;;;;;;;3.50;0.77;;;;;;;29.86;30.99;97001.56;6155975;23;20354;-83
2022/09/05 13:32:14;;;;;;;1.10;1.00;;;;;;;29.83;30.26;96994.88;6158100;23;20025;-84
2022/09/05 13:35:09;;;;;;;1.10;0.88;;;;;;;29.82;30.38;97000.56;6156347;23;20028;-85
2022/09/05 13:38:03;;;;;;;3.63;1.35;;;;;;;29.76;30.77;96997.19;6156651;23;20100;-84
2022/09/05 13:40:56;;;;;;;1.52;0.82;;;;;;;29.74;31.72;96996.69;6156196;23;20021;-84
2022/09/05 13:43:29;;;;;;;2.67;0.90;;;;;;;29.72;30.73;96985.41;6156305;23;20018;-84
2022/09/05 13:46:09;;;;;;;1.27;1.02;;;;;;;29.71;31.45;96999.94;6156642;23;20049;-85
2022/09/05 13:48:49;;;;;;;12.95;1.85;;;;;;;29.67;36.83;96990.84;6157624;23;20406;-79
2022/09/05 13:51:42;;;;;;;2.80;0.88;;;;;;;29.56;36.38;96988.34;6157678;23;20026;-82
2022/09/05 13:54:36;;;;;;;0.98;0.90;;;;;;;29.44;31.46;96977.25;6157355;23;20493;-82
2022/09/05 13:57:30;;;;;;;0.95;0.77;;;;;;;29.38;32.81;96976.53;6152740;23;20388;-77
2022/09/05 14:00:47;;;;;;;5.50;1.30;;;;;;;29.32;36.75;96979.59;6152347;23;20022;-77
2022/09/05 14:03:54;;;;;;;35.35;2.55;;;;;;;29.17;37.31;96976.06;6092926;23;20048;-79
2022/09/05 14:06:50;;;;;;;3.38;0.95;;;;;;;29.06;34.29;96971.91;6187032;23;20032;-80
2022/09/05 14:09:37;;;;;;;1.98;0.95;;;;;;;29.01;31.97;96965.81;6185965;23;20024;-80
2022/09/05 14:12:14;;;;;;;1.70;1.15;;;;;;;29.02;30.46;96968.22;6186815;23;20022;-80
2022/09/05 14:14:48;;;;;;;2.85;0.85;;;;;;;29.02;30.99;96952.09;6185573;23;20020;-80
2022/09/05 14:17:55;;;;;;;0.90;0.80;;;;;;;29.03;30.35;96955.59;6185570;23;20618;-80
2022/09/05 14:23:16;;;;;;;1.38;0.57;;;;;;;29.00;29.57;96951.59;6186578;23;20017;-80
2022/09/05 14:25:49;;;;;;;0.88;0.88;;;;;;;29.01;31.11;96947.00;6187016;23;20029;-80
2022/09/05 14:28:25;;;;;;;1.27;0.80;;;;;;;29.00;31.06;96943.53;6189576;23;20091;-78
2022/09/05 14:30:57;;;;;;;2.28;1.00;;;;;;;28.99;30.51;96944.63;6189573;23;20401;-79
2022/09/05 14:33:58;;;;;;;1.30;0.90;;;;;;;28.99;30.18;96944.63;6188021;23;20545;-80
2022/09/05 14:36:58;;;;;;;1.10;0.80;;;;;;;28.95;29.33;96936.38;6187514;23;20104;-81
2022/09/05 14:40:23;;;;;;;0.95;0.82;;;;;;;28.93;29.78;96938.53;6190865;23;20055;-80
2022/09/05 14:43:16;;;;;;;1.38;0.85;;;;;;;28.92;29.89;96942.31;6203769;23;20021;-80
2022/09/05 14:46:24;;;;;;;1.45;0.90;;;;;;;28.92;32.08;96933.44;6197175;23;20025;-80
2022/09/05 14:49:13;;;;;;;1.23;0.70;;;;;;;28.92;31.25;96926.19;6188732;23;20487;-82